Time;durP1;ratioP1;P1;durP2;ratioP2;P2;SDS_P1;SDS_P2;PMS_P1;PMS_P2;Temp;Humidity;BMP_temperature;BMP_pressure;BME280_temperature;BME280_humidity;BME280_pressure;Samples;Min_cycle;Max_cycle;Signal;HPM_P1;HPM_P2
2021/12/06 00:01:06;;;;;;;8.57;4.35;;;;;;;15.11;52.28;99358.31;5054522;28;20357;-89
2021/12/06 00:03:45;;;;;;;8.43;3.97;;;;;;;15.13;52.42;99356.47;5054265;28;20387;-88
2021/12/06 00:06:13;;;;;;;7.93;3.88;;;;;;;15.12;52.47;99346.88;5054804;28;20090;-88
2021/12/06 00:08:39;;;;;;;7.28;3.88;;;;;;;15.16;52.23;99351.13;5055176;28;20396;-89
2021/12/06 00:11:08;;;;;;;7.50;3.88;;;;;;;15.10;52.51;99354.81;5054077;28;20067;-89
2021/12/06 00:13:45;;;;;;;9.57;4.05;;;;;;;15.13;52.47;99362.59;5053862;28;20016;-89
2021/12/06 00:16:16;;;;;;;9.35;4.07;;;;;;;15.13;52.55;99364.38;5035080;28;20025;-89
2021/12/06 00:18:43;;;;;;;8.43;3.83;;;;;;;15.13;52.17;99361.75;5034154;28;20451;-89
2021/12/06 00:21:10;;;;;;;7.53;3.53;;;;;;;15.12;52.57;99362.66;5034214;28;20076;-89
2021/12/06 00:23:36;;;;;;;6.43;3.22;;;;;;;15.15;52.49;99376.53;5033771;28;20384;-89
2021/12/06 00:26:04;;;;;;;6.88;3.03;;;;;;;15.16;52.15;99372.16;5033937;28;20029;-88
2021/12/06 00:28:30;;;;;;;7.25;3.45;;;;;;;15.14;52.32;99368.72;5034088;28;20122;-87
2021/12/06 00:30:56;;;;;;;7.07;3.33;;;;;;;15.14;52.24;99368.72;5050672;28;20117;-89
2021/12/06 00:33:24;;;;;;;6.60;3.22;;;;;;;15.16;52.43;99378.25;5034749;28;20045;-89
2021/12/06 00:35:49;;;;;;;7.68;3.17;;;;;;;15.19;52.21;99376.41;5033625;28;20087;-88
2021/12/06 00:38:17;;;;;;;6.53;3.33;;;;;;;15.16;52.25;99375.63;5034009;28;20021;-90
2021/12/06 00:40:47;;;;;;;6.50;3.42;;;;;;;15.18;52.40;99375.56;5034850;28;20025;-91
2021/12/06 00:43:13;;;;;;;6.60;3.20;;;;;;;15.17;52.19;99373.88;5034980;28;20059;-89
2021/12/06 00:45:39;;;;;;;8.13;3.05;;;;;;;15.12;52.49;99375.81;5034616;28;20029;-90
2021/12/06 00:48:06;;;;;;;6.72;3.20;;;;;;;15.13;52.41;99377.50;5050156;28;20121;-90
2021/12/06 00:50:34;;;;;;;7.25;3.00;;;;;;;15.13;52.44;99383.63;5033624;28;20098;-89
2021/12/06 00:53:00;;;;;;;5.68;2.95;;;;;;;15.14;52.50;99379.22;5033661;28;20121;-88
2021/12/06 00:55:27;;;;;;;7.70;3.22;;;;;;;15.18;52.30;99375.56;5033646;28;20456;-88
2021/12/06 00:57:53;;;;;;;6.72;2.90;;;;;;;15.17;52.41;99379.97;5033485;28;20025;-87
2021/12/06 01:00:22;;;;;;;6.88;3.17;;;;;;;15.18;52.19;99391.34;5042123;28;20052;-90
2021/12/06 01:02:47;;;;;;;7.70;3.30;;;;;;;15.20;52.15;99372.88;5053315;28;20021;-88
2021/12/06 01:05:13;;;;;;;7.25;2.90;;;;;;;15.21;52.21;99385.94;5053260;28;20100;-90
2021/12/06 01:07:39;;;;;;;6.32;2.63;;;;;;;15.24;51.97;99390.22;5070175;28;20029;-89
2021/12/06 01:10:08;;;;;;;6.68;2.75;;;;;;;15.18;52.38;99396.59;5053485;28;20104;-89
2021/12/06 01:12:33;;;;;;;7.28;3.08;;;;;;;15.21;52.28;99396.47;5054679;28;20036;-89
2021/12/06 01:14:59;;;;;;;7.88;3.28;;;;;;;15.19;52.38;99393.03;5054208;28;20021;-89
2021/12/06 01:17:25;;;;;;;7.43;2.85;;;;;;;15.16;52.66;99398.44;5054426;28;20083;-89
2021/12/06 01:19:50;;;;;;;6.75;2.80;;;;;;;15.16;52.29;99396.66;5070216;28;20025;-89
2021/12/06 01:22:28;;;;;;;6.72;2.50;;;;;;;15.23;52.19;99399.91;5053292;28;20021;-89
2021/12/06 01:24:59;;;;;;;6.35;2.63;;;;;;;15.21;52.35;99391.22;5054074;28;20138;-87
2021/12/06 01:27:39;;;;;;;6.18;2.83;;;;;;;15.24;52.38;99400.75;5053441;28;20087;-88
2021/12/06 01:41:15;;;;;;;6.63;2.78;;;;;;;15.25;52.09;99413.00;5032733;28;20060;-87
2021/12/06 01:44:29;;;;;;;6.88;2.38;;;;;;;15.25;52.17;99408.59;5045230;28;20060;-87
2021/12/06 01:46:59;;;;;;;5.53;2.30;;;;;;;15.26;52.23;99409.47;5041137;28;20059;-86
2021/12/06 01:49:29;;;;;;;4.85;2.53;;;;;;;15.29;52.19;99415.44;5057263;28;20029;-87
2021/12/06 01:51:58;;;;;;;7.57;2.55;;;;;;;15.29;52.03;99415.44;5073283;28;20027;-88
2021/12/06 01:54:24;;;;;;;5.78;2.08;;;;;;;15.27;52.08;99419.88;5073135;28;20044;-84
2021/12/06 01:56:51;;;;;;;6.13;2.70;;;;;;;15.26;52.21;99415.56;5056369;28;20025;-83
2021/12/06 01:59:19;;;;;;;5.47;2.10;;;;;;;15.27;52.04;99413.78;5056422;28;20060;-89
2021/12/06 02:01:45;;;;;;;5.47;2.47;;;;;;;15.27;52.08;99412.00;5056364;28;20025;-88
2021/12/06 02:04:12;;;;;;;5.65;2.15;;;;;;;15.28;51.99;99419.00;5056184;28;20036;-87
2021/12/06 02:06:39;;;;;;;5.90;2.20;;;;;;;15.27;52.16;99417.25;5057176;28;20021;-85
2021/12/06 02:09:08;;;;;;;5.60;2.35;;;;;;;15.27;51.97;99422.53;5072921;28;20075;-88
2021/12/06 02:11:36;;;;;;;7.88;2.50;;;;;;;15.25;52.08;99419.09;5056233;28;20347;-85
2021/12/06 02:14:17;;;;;;;4.40;2.22;;;;;;;15.21;52.10;99425.38;5057100;28;20027;-84
2021/12/06 02:16:59;;;;;;;4.95;1.90;;;;;;;15.24;52.34;99424.41;5055418;28;20020;-84
2021/12/06 02:19:31;;;;;;;5.32;2.03;;;;;;;15.23;52.24;99425.31;5055383;28;20481;-84
2021/12/06 02:21:59;;;;;;;6.20;2.20;;;;;;;15.26;51.80;99426.06;5055860;28;20447;-87
2021/12/06 02:24:25;;;;;;;5.70;2.13;;;;;;;15.28;52.04;99426.88;5055343;28;20140;-88
2021/12/06 02:26:51;;;;;;;5.93;2.22;;;;;;;15.26;51.96;99441.84;5056791;28;20057;-86
2021/12/06 02:29:18;;;;;;;6.15;2.10;;;;;;;15.27;51.86;99437.47;5058822;28;20344;-88
2021/12/06 02:31:44;;;;;;;6.03;2.05;;;;;;;15.27;52.09;99435.66;5061066;28;20340;-89
2021/12/06 02:34:09;;;;;;;6.05;2.20;;;;;;;15.24;51.97;99432.28;5055730;28;20083;-88
2021/12/06 02:36:35;;;;;;;5.95;2.10;;;;;;;15.22;52.13;99440.25;5056636;28;20024;-86
2021/12/06 02:39:03;;;;;;;5.25;1.80;;;;;;;15.24;52.16;99437.56;5056792;28;20060;-89
2021/12/06 02:41:29;;;;;;;5.25;2.00;;;;;;;15.24;51.97;99438.41;5055805;28;20017;-88
2021/12/06 02:43:55;;;;;;;4.22;1.90;;;;;;;15.25;52.14;99429.63;5056482;28;20407;-88
2021/12/06 02:46:22;;;;;;;5.57;2.17;;;;;;;15.30;51.95;99427.69;5056604;28;20447;-88
2021/12/06 02:48:48;;;;;;;5.25;1.95;;;;;;;15.29;52.03;99443.50;5056441;28;20024;-89
2021/12/06 02:51:15;;;;;;;4.38;1.88;;;;;;;15.28;51.89;99429.50;5055539;28;20154;-89
2021/12/06 02:53:41;;;;;;;5.47;2.08;;;;;;;15.29;51.83;99449.63;5055335;28;20478;-88
2021/12/06 02:56:31;;;;;;;7.00;2.03;;;;;;;15.31;51.77;99444.31;5055395;28;20115;-88
2021/12/06 02:59:04;;;;;;;4.47;2.00;;;;;;;15.29;51.88;99439.13;5056220;28;20028;-88
2021/12/06 03:01:39;;;;;;;5.05;1.92;;;;;;;15.30;51.81;99445.22;5054460;28;20025;-90
2021/12/06 03:04:05;;;;;;;5.95;2.05;;;;;;;15.32;51.88;99447.78;5055923;28;20025;-89
2021/12/06 03:06:31;;;;;;;7.03;1.60;;;;;;;15.32;51.74;99453.03;5055213;28;20029;-88
2021/12/06 03:09:09;;;;;;;4.15;1.40;;;;;;;15.25;51.91;99445.38;5055119;28;20024;-89
2021/12/06 03:11:37;;;;;;;5.05;1.67;;;;;;;15.26;51.91;99447.09;5054979;28;20083;-89
2021/12/06 03:14:05;;;;;;;7.72;2.03;;;;;;;15.25;51.91;99453.28;5054350;28;20126;-88
2021/12/06 03:16:31;;;;;;;4.07;1.67;;;;;;;15.26;51.85;99452.34;5055759;28;20171;-88
2021/12/06 03:18:57;;;;;;;4.55;1.60;;;;;;;15.24;51.75;99446.31;5055869;28;20107;-89
2021/12/06 03:21:25;;;;;;;4.85;1.95;;;;;;;15.24;51.75;99456.81;5055760;28;20033;-88
2021/12/06 03:23:53;;;;;;;5.68;2.00;;;;;;;15.28;51.77;99447.06;5054568;28;20060;-88
2021/12/06 03:26:19;;;;;;;7.22;1.98;;;;;;;15.28;51.80;99455.81;5054853;28;20124;-87
2021/12/06 03:28:46;;;;;;;4.18;1.60;;;;;;;15.26;51.81;99460.25;5055589;28;20067;-89
2021/12/06 03:31:12;;;;;;;4.80;1.98;;;;;;;15.29;51.85;99456.66;5054583;28;20032;-88
2021/12/06 03:33:40;;;;;;;5.68;1.75;;;;;;;15.28;51.85;99461.06;5055759;28;20052;-88
2021/12/06 03:36:07;;;;;;;6.72;1.70;;;;;;;15.29;51.77;99457.50;5055744;28;20021;-88
2021/12/06 03:38:34;;;;;;;4.18;1.58;;;;;;;15.30;51.69;99453.97;5054521;28;20063;-88
2021/12/06 03:40:59;;;;;;;3.40;1.25;;;;;;;15.29;51.93;99457.50;5055538;28;20033;-89
2021/12/06 03:43:25;;;;;;;3.95;1.60;;;;;;;15.27;51.73;99459.31;5055311;28;20029;-88
2021/12/06 03:45:51;;;;;;;4.93;1.55;;;;;;;15.24;51.90;99454.19;5055473;28;20103;-87
2021/12/06 03:48:17;;;;;;;3.38;1.23;;;;;;;15.29;52.00;99468.03;5054324;28;20056;-88
2021/12/06 03:50:42;;;;;;;3.95;1.30;;;;;;;15.25;51.74;99465.59;5055464;28;20024;-87
2021/12/06 03:53:08;;;;;;;4.93;1.73;;;;;;;15.28;51.93;99474.22;5054348;28;20025;-88
2021/12/06 03:55:34;;;;;;;5.05;1.60;;;;;;;15.26;52.04;99457.63;5054427;28;20119;-88
2021/12/06 03:57:59;;;;;;;3.40;1.35;;;;;;;15.32;51.68;99467.06;5053219;28;20021;-87
2021/12/06 04:00:25;;;;;;;5.20;1.55;;;;;;;15.32;51.89;99476.72;5054685;28;20094;-89
2021/12/06 04:02:51;;;;;;;4.70;1.42;;;;;;;15.29;51.90;99483.81;5054279;28;20024;-90
2021/12/06 04:05:17;;;;;;;3.95;1.30;;;;;;;15.30;51.93;99482.00;5054835;28;20044;-89
2021/12/06 04:07:42;;;;;;;3.53;1.40;;;;;;;15.29;51.81;99489.06;5054248;28;20036;-89
2021/12/06 04:10:09;;;;;;;4.30;1.40;;;;;;;15.28;51.93;99492.63;5054681;28;20040;-89
2021/12/06 04:12:37;;;;;;;4.18;1.20;;;;;;;15.26;52.07;99494.41;5054871;28;20359;-88
2021/12/06 04:15:04;;;;;;;4.80;1.23;;;;;;;15.27;52.07;99501.38;5053704;28;20029;-88
2021/12/06 04:17:30;;;;;;;5.63;1.60;;;;;;;15.33;51.84;99515.22;5054125;28;20033;-88
2021/12/06 04:19:55;;;;;;;3.58;1.20;;;;;;;15.35;51.88;99502.91;5069886;28;20333;-87
2021/12/06 04:22:21;;;;;;;5.60;1.60;;;;;;;15.29;51.79;99514.50;5052405;28;20039;-89
2021/12/06 04:24:47;;;;;;;4.40;1.40;;;;;;;15.30;51.76;99514.44;5054593;28;20119;-88
2021/12/06 04:27:14;;;;;;;4.47;1.20;;;;;;;15.31;51.77;99512.69;5054297;28;20059;-89
2021/12/06 04:29:46;;;;;;;4.63;1.50;;;;;;;15.31;51.88;99523.19;5054485;28;20071;-88
2021/12/06 04:32:13;;;;;;;5.55;1.50;;;;;;;15.32;51.81;99521.41;5053746;28;20035;-89
2021/12/06 04:34:40;;;;;;;3.80;1.20;;;;;;;15.30;51.89;99519.69;5053850;28;20025;-89
2021/12/06 04:37:06;;;;;;;4.00;1.30;;;;;;;15.31;51.82;99517.94;5054689;28;20083;-89
2021/12/06 04:39:33;;;;;;;3.97;1.33;;;;;;;15.29;51.77;99520.63;5054697;28;20032;-88
2021/12/06 04:41:59;;;;;;;4.18;1.60;;;;;;;15.30;51.78;99524.94;5053883;28;20115;-89
2021/12/06 04:44:25;;;;;;;4.10;1.20;;;;;;;15.32;51.97;99522.28;5054300;28;20425;-89
2021/12/06 04:46:51;;;;;;;3.65;1.17;;;;;;;15.32;51.74;99519.66;5053426;28;20094;-89
2021/12/06 04:49:17;;;;;;;6.15;1.52;;;;;;;15.30;51.92;99522.31;5054580;28;20090;-88
2021/12/06 04:51:49;;;;;;;3.75;1.35;;;;;;;15.30;51.81;99532.84;5054566;28;20032;-89
2021/12/06 04:54:16;;;;;;;5.47;1.33;;;;;;;15.34;51.86;99540.63;5053285;28;20036;-89
2021/12/06 04:56:47;;;;;;;4.72;1.48;;;;;;;15.36;51.86;99551.94;5052320;28;20048;-89
2021/12/06 04:59:19;;;;;;;4.35;1.30;;;;;;;15.36;51.64;99541.44;5053535;28;20062;-88
2021/12/06 05:01:46;;;;;;;3.83;1.27;;;;;;;15.36;51.74;99559.81;5053064;28;20451;-88
2021/12/06 05:04:21;;;;;;;4.88;1.77;;;;;;;15.37;51.67;99559.78;5054310;28;20056;-89
2021/12/06 05:06:50;;;;;;;4.10;1.30;;;;;;;15.34;51.95;99574.81;5070214;28;20435;-89
2021/12/06 05:09:23;;;;;;;4.38;1.38;;;;;;;15.35;51.80;99577.38;5053663;28;20029;-89
2021/12/06 05:11:49;;;;;;;3.83;1.27;;;;;;;15.31;51.97;99581.03;5054395;28;20032;-89
2021/12/06 05:14:16;;;;;;;5.10;1.23;;;;;;;15.35;52.07;99581.78;5053035;28;20083;-88
2021/12/06 05:16:41;;;;;;;3.25;1.00;;;;;;;15.34;51.92;99591.44;5054291;28;20455;-88
2021/12/06 05:19:08;;;;;;;4.50;1.08;;;;;;;15.34;51.85;99594.06;5069637;28;20055;-84
2021/12/06 05:21:35;;;;;;;4.15;1.40;;;;;;;15.35;51.83;99597.56;5053637;28;20083;-88
2021/12/06 05:24:01;;;;;;;4.95;1.17;;;;;;;15.35;52.02;99592.31;5056050;28;20061;-90
2021/12/06 05:26:27;;;;;;;3.35;1.13;;;;;;;15.36;51.99;99596.63;5056136;28;20028;-89
2021/12/06 05:28:57;;;;;;;5.38;1.17;;;;;;;15.39;51.72;99596.50;5057883;28;20071;-90
2021/12/06 05:31:24;;;;;;;5.85;1.52;;;;;;;15.41;51.66;99600.81;5056708;28;20538;-91
2021/12/06 05:33:54;;;;;;;3.28;1.15;;;;;;;15.37;52.01;99600.97;5056699;28;20040;-90
2021/12/06 05:36:20;;;;;;;4.18;1.10;;;;;;;15.36;52.00;99601.91;5056959;28;20040;-89
2021/12/06 05:38:45;;;;;;;3.65;1.25;;;;;;;15.40;51.83;99606.16;5056430;28;20029;-91
2021/12/06 05:41:11;;;;;;;2.53;1.00;;;;;;;15.40;51.62;99603.53;5056850;28;20093;-91
2021/12/06 05:43:37;;;;;;;3.47;1.10;;;;;;;15.38;51.97;99608.81;5056753;28;20502;-91
2021/12/06 05:46:03;;;;;;;4.15;1.30;;;;;;;15.39;51.86;99614.94;5056727;28;20432;-90
2021/12/06 05:48:29;;;;;;;5.00;1.27;;;;;;;15.38;51.85;99623.72;5056828;28;20048;-91
2021/12/06 05:50:55;;;;;;;2.45;0.93;;;;;;;15.44;51.75;99628.78;5056739;28;20029;-89
2021/12/06 05:53:21;;;;;;;3.92;1.27;;;;;;;15.38;51.86;99635.13;5055798;28;20127;-88
2021/12/06 05:55:47;;;;;;;4.05;1.30;;;;;;;15.44;51.90;99634.03;5056220;28;20358;-87
2021/12/06 05:58:15;;;;;;;3.47;1.10;;;;;;;15.44;51.87;99639.28;5056181;28;20025;-88
2021/12/06 06:00:42;;;;;;;5.00;1.27;;;;;;;15.40;51.82;99649.06;5057204;28;20032;-88
2021/12/06 06:03:09;;;;;;;4.88;1.33;;;;;;;15.38;52.03;99645.63;5056122;28;20028;-89
2021/12/06 06:05:36;;;;;;;3.22;0.98;;;;;;;15.41;51.61;99649.94;5056417;28;20087;-90
2021/12/06 06:08:03;;;;;;;3.90;1.23;;;;;;;15.46;51.85;99653.28;5055677;28;20048;-91
2021/12/06 06:10:33;;;;;;;4.32;1.23;;;;;;;15.49;51.65;99647.88;5055615;28;20536;-86
2021/12/06 06:13:00;;;;;;;3.63;1.15;;;;;;;15.45;51.74;99651.53;5055657;28;20020;-88
2021/12/06 06:15:28;;;;;;;5.50;1.20;;;;;;;15.41;51.82;99655.19;5054551;28;20070;-89
2021/12/06 06:17:54;;;;;;;5.07;1.80;;;;;;;15.46;51.71;99648.00;5056339;28;20036;-90
2021/12/06 06:20:52;;;;;;;5.00;1.30;;;;;;;15.44;51.70;99650.69;5055603;28;20028;-87
2021/12/06 06:23:18;;;;;;;4.72;1.38;;;;;;;15.40;51.96;99651.69;5054339;28;20059;-86
2021/12/06 06:25:44;;;;;;;3.80;1.17;;;;;;;15.43;51.87;99656.00;5054629;28;20036;-87
2021/12/06 06:28:09;;;;;;;2.83;1.00;;;;;;;15.44;51.86;99660.34;5055694;28;20043;-83
2021/12/06 06:30:35;;;;;;;5.05;1.15;;;;;;;15.43;51.82;99656.00;5054820;28;20087;-86
2021/12/06 06:33:03;;;;;;;3.75;1.23;;;;;;;15.41;52.12;99660.44;5055425;28;20056;-86
2021/12/06 06:35:28;;;;;;;5.53;1.20;;;;;;;15.44;52.25;99662.97;5052574;28;20017;-86
2021/12/06 06:37:54;;;;;;;5.00;1.30;;;;;;;15.47;52.02;99660.25;5054425;28;20025;-87
2021/12/06 06:40:19;;;;;;;3.58;1.02;;;;;;;15.49;52.04;99668.94;5054647;28;20031;-85
2021/12/06 06:42:46;;;;;;;3.63;1.10;;;;;;;15.46;52.28;99679.56;5054768;28;20052;-87
2021/12/06 06:45:15;;;;;;;4.90;1.20;;;;;;;15.47;52.07;99681.28;5054521;28;20108;-86
2021/12/06 06:47:42;;;;;;;5.47;1.48;;;;;;;15.44;52.32;99676.09;5070153;28;20035;-85
2021/12/06 06:50:08;;;;;;;4.40;1.40;;;;;;;15.47;52.02;99676.03;5053195;28;20037;-89
2021/12/06 06:52:34;;;;;;;4.25;1.40;;;;;;;15.49;52.13;99684.69;5052242;28;20444;-89
2021/12/06 06:55:00;;;;;;;4.22;1.40;;;;;;;15.48;52.49;99680.38;5043260;28;20027;-86
2021/12/06 06:57:26;;;;;;;4.03;1.40;;;;;;;15.53;52.22;99691.59;5055474;28;20041;-89
2021/12/06 06:59:52;;;;;;;3.83;1.27;;;;;;;15.50;52.46;99685.56;5056025;28;20033;-87
2021/12/06 07:02:18;;;;;;;3.80;1.40;;;;;;;15.52;52.11;99692.50;5056026;28;20028;-88
2021/12/06 07:04:44;;;;;;;4.60;1.40;;;;;;;15.49;52.24;99700.47;5055028;28;20123;-89
2021/12/06 07:07:10;;;;;;;4.93;1.42;;;;;;;15.53;52.17;99707.38;5055122;28;20067;-87
2021/12/06 07:09:35;;;;;;;6.53;1.80;;;;;;;15.50;52.41;99707.47;5055070;28;20025;-84
2021/12/06 07:12:01;;;;;;;4.55;1.45;;;;;;;15.51;52.21;99717.09;5071613;28;20562;-86
2021/12/06 07:14:27;;;;;;;6.63;1.65;;;;;;;15.53;52.29;99724.91;5055960;28;20105;-87
2021/12/06 07:16:53;;;;;;;5.43;1.77;;;;;;;15.54;52.44;99726.63;5054670;28;20124;-86
2021/12/06 07:19:19;;;;;;;5.00;1.50;;;;;;;15.52;52.25;99721.44;5053910;28;20043;-85
2021/12/06 07:21:44;;;;;;;5.90;2.13;;;;;;;15.53;52.23;99715.25;5054347;28;20033;-87
2021/12/06 07:24:11;;;;;;;4.60;1.65;;;;;;;15.54;52.49;99730.13;5050771;28;20049;-88
2021/12/06 07:26:36;;;;;;;5.03;1.50;;;;;;;15.54;52.25;99734.50;5055764;28;20491;-87
2021/12/06 07:29:03;;;;;;;3.67;1.23;;;;;;;15.56;52.30;99723.03;5054950;28;20029;-89
2021/12/06 07:31:29;;;;;;;4.82;1.42;;;;;;;15.56;52.28;99728.28;5054881;28;20033;-83
2021/12/06 07:33:54;;;;;;;5.07;1.48;;;;;;;15.54;52.15;99724.00;5056006;28;20436;-85
2021/12/06 07:36:25;;;;;;;3.75;1.27;;;;;;;15.52;52.35;99725.81;5054524;28;20051;-92
2021/12/06 07:38:51;;;;;;;4.75;1.40;;;;;;;15.54;52.36;99724.88;5055289;28;20057;-92
2021/12/06 07:41:20;;;;;;;4.47;1.50;;;;;;;15.53;52.44;99738.06;5055004;28;20040;-91
2021/12/06 07:43:47;;;;;;;4.65;1.45;;;;;;;15.59;52.33;99737.00;5054797;28;20029;-90
2021/12/06 07:46:15;;;;;;;4.20;1.38;;;;;;;15.54;52.46;99730.13;5053838;28;20458;-89
2021/12/06 07:48:40;;;;;;;4.13;1.23;;;;;;;15.53;52.26;99732.78;5054578;28;20033;-91
2021/12/06 07:51:07;;;;;;;3.40;1.17;;;;;;;15.59;52.40;99747.53;5054579;28;20119;-89
2021/12/06 07:53:34;;;;;;;4.18;1.60;;;;;;;15.54;52.23;99750.28;5054582;28;20025;-90
2021/12/06 07:56:00;;;;;;;5.65;1.80;;;;;;;15.60;52.13;99749.25;5051525;28;20025;-89
2021/12/06 07:58:26;;;;;;;3.67;1.40;;;;;;;15.60;52.25;99739.59;5054061;28;20033;-92
2021/12/06 08:00:53;;;;;;;4.53;1.25;;;;;;;15.59;52.20;99760.69;5053660;28;20466;-92
2021/12/06 08:03:22;;;;;;;5.18;1.70;;;;;;;15.57;52.32;99761.59;5070670;28;20463;-91
2021/12/06 08:05:50;;;;;;;5.13;1.60;;;;;;;15.57;52.44;99761.59;5054795;28;20020;-91
2021/12/06 08:08:19;;;;;;;4.53;1.25;;;;;;;15.59;52.25;99766.78;5054906;28;20112;-94
2021/12/06 08:10:48;;;;;;;4.95;1.42;;;;;;;15.63;52.31;99759.66;5054505;28;20462;-93
2021/12/06 08:13:19;;;;;;;6.78;1.70;;;;;;;15.60;52.28;99765.91;5055373;28;20082;-89
2021/12/06 08:15:45;;;;;;;3.92;1.25;;;;;;;15.62;52.36;99769.31;5054149;28;20444;-90
2021/12/06 08:18:11;;;;;;;6.25;1.45;;;;;;;15.62;52.30;99771.97;5053859;28;20025;-91
2021/12/06 08:20:38;;;;;;;4.50;1.20;;;;;;;15.60;52.53;99775.56;5054132;28;20036;-92
2021/12/06 08:23:06;;;;;;;5.80;1.70;;;;;;;15.60;52.45;99791.34;5053045;28;20055;-92
2021/12/06 08:25:32;;;;;;;5.85;1.80;;;;;;;15.57;52.30;99781.78;5054464;28;20055;-92
2021/12/06 08:27:58;;;;;;;7.30;1.88;;;;;;;15.62;52.30;99789.50;5070552;28;20024;-93
2021/12/06 08:30:26;;;;;;;3.95;1.27;;;;;;;15.64;52.47;99787.69;5054503;28;20471;-92
2021/12/06 08:32:59;;;;;;;7.03;1.60;;;;;;;15.63;52.19;99785.94;5053905;28;20029;-91
2021/12/06 08:35:26;;;;;;;4.22;1.40;;;;;;;15.62;52.41;99800.03;5054082;28;20075;-92
2021/12/06 08:37:54;;;;;;;6.57;1.77;;;;;;;15.64;52.01;99788.53;5053930;28;20071;-88
2021/12/06 08:40:21;;;;;;;7.15;1.92;;;;;;;15.63;52.41;99802.59;5059577;28;20028;-90
2021/12/06 08:42:47;;;;;;;4.32;1.40;;;;;;;15.62;52.19;99793.00;5052804;28;20025;-92
2021/12/06 08:45:14;;;;;;;4.25;1.60;;;;;;;15.64;52.36;99798.22;5053952;28;20025;-92
2021/12/06 08:47:41;;;;;;;6.15;1.75;;;;;;;15.63;52.20;99796.47;5054751;28;20111;-92
2021/12/06 08:50:10;;;;;;;5.03;1.48;;;;;;;15.63;52.37;99810.50;5053912;28;20075;-91
2021/12/06 08:52:36;;;;;;;4.85;1.50;;;;;;;15.65;52.36;99811.28;5069709;28;20043;-91
2021/12/06 08:55:05;;;;;;;5.50;1.77;;;;;;;15.64;52.29;99814.84;5050118;28;20024;-92
2021/12/06 08:57:30;;;;;;;6.00;1.60;;;;;;;15.62;52.48;99821.94;5054590;28;20079;-90
2021/12/06 08:59:56;;;;;;;5.78;1.60;;;;;;;15.61;52.56;99814.97;5057181;28;20467;-90
2021/12/06 09:02:22;;;;;;;7.00;2.25;;;;;;;15.65;52.30;99821.81;5056621;28;20089;-90
2021/12/06 09:04:48;;;;;;;4.45;1.40;;;;;;;15.68;52.41;99831.38;5056549;28;20112;-89
2021/12/06 09:07:15;;;;;;;4.15;1.67;;;;;;;15.67;52.48;99827.03;5057550;28;20448;-91
2021/12/06 09:09:46;;;;;;;4.85;1.40;;;;;;;15.66;52.56;99838.47;5057823;28;20025;-91
2021/12/06 09:12:31;;;;;;;3.88;1.30;;;;;;;15.65;52.42;99831.50;5057563;28;20040;-91
2021/12/06 09:15:00;;;;;;;5.85;1.75;;;;;;;15.67;52.35;99825.28;5058801;28;20052;-90
2021/12/06 09:17:27;;;;;;;4.03;1.50;;;;;;;15.66;52.35;99839.34;5057641;28;20040;-91
2021/12/06 09:19:53;;;;;;;5.22;1.70;;;;;;;15.69;52.35;99835.75;5057773;28;20356;-91
2021/12/06 09:22:19;;;;;;;4.53;1.48;;;;;;;15.72;52.17;99838.28;5057297;28;20028;-91
2021/12/06 09:24:45;;;;;;;5.93;1.65;;;;;;;15.71;52.51;99826.88;5057197;28;20127;-92
2021/12/06 09:27:11;;;;;;;4.88;1.70;;;;;;;15.73;52.46;99845.25;5057596;28;20032;-91
2021/12/06 09:29:37;;;;;;;4.32;1.58;;;;;;;15.76;52.28;99842.53;5057494;28;20033;-91
2021/12/06 09:32:09;;;;;;;3.58;1.67;;;;;;;15.72;52.38;99838.28;5057418;28;20056;-91
2021/12/06 09:34:39;;;;;;;4.15;1.20;;;;;;;15.75;52.35;99843.44;5057637;28;20040;-91
2021/12/06 09:37:05;;;;;;;5.97;1.70;;;;;;;15.74;52.33;99846.13;5056990;28;20036;-91
2021/12/06 09:39:32;;;;;;;5.85;1.80;;;;;;;15.74;52.57;99844.34;5057228;28;20470;-90
2021/12/06 09:41:58;;;;;;;5.78;1.63;;;;;;;15.72;52.56;99854.06;5057165;28;20029;-91
2021/12/06 09:44:24;;;;;;;5.78;1.75;;;;;;;15.74;52.36;99851.38;5056761;28;20094;-91
2021/12/06 09:46:50;;;;;;;4.40;1.55;;;;;;;15.74;52.49;99856.66;5057227;28;20463;-92
2021/12/06 09:49:19;;;;;;;7.22;1.60;;;;;;;15.73;52.50;99850.50;5057861;28;20116;-91
2021/12/06 09:51:51;;;;;;;5.93;2.28;;;;;;;15.76;52.62;99849.56;5056879;28;20079;-92
2021/12/06 09:54:19;;;;;;;4.75;1.58;;;;;;;15.75;52.58;99858.38;5056947;28;20032;-91
2021/12/06 09:56:46;;;;;;;7.82;1.77;;;;;;;15.74;52.53;99851.38;5057079;28;20052;-91
2021/12/06 09:59:14;;;;;;;5.03;1.42;;;;;;;15.77;52.58;99852.16;5057141;28;20120;-91
2021/12/06 10:01:45;;;;;;;6.13;1.55;;;;;;;15.75;52.45;99850.47;5056817;28;20021;-90
2021/12/06 10:04:14;;;;;;;6.72;1.50;;;;;;;15.78;52.67;99859.13;5057596;28;20107;-91
2021/12/06 10:06:40;;;;;;;4.70;1.52;;;;;;;15.77;52.47;99849.50;5057671;28;20087;-91
2021/12/06 10:09:09;;;;;;;4.97;1.48;;;;;;;15.77;52.65;99852.16;5055722;28;20021;-91
2021/12/06 10:11:35;;;;;;;5.55;1.30;;;;;;;15.75;52.67;99840.81;5056686;28;20051;-89
2021/12/06 10:14:01;;;;;;;7.07;1.80;;;;;;;15.83;52.52;99844.03;5056558;28;20052;-91
2021/12/06 10:16:28;;;;;;;5.70;1.50;;;;;;;15.78;52.87;99832.81;5056728;28;20052;-90
2021/12/06 10:18:54;;;;;;;5.38;1.48;;;;;;;15.80;52.71;99830.13;5056572;28;20020;-91
2021/12/06 10:21:23;;;;;;;4.80;1.85;;;;;;;15.81;52.68;99834.47;5056364;28;20021;-90
2021/12/06 10:23:49;;;;;;;6.28;1.40;;;;;;;15.84;52.82;99837.03;5056158;28;20128;-91
2021/12/06 10:26:21;;;;;;;4.78;1.58;;;;;;;15.82;52.60;99836.19;5055832;28;20025;-92
2021/12/06 10:28:47;;;;;;;4.78;1.48;;;;;;;15.82;52.77;99831.81;5056445;28;20051;-91
2021/12/06 10:31:14;;;;;;;4.35;1.27;;;;;;;15.83;52.57;99830.88;5056253;28;20482;-91
2021/12/06 10:33:46;;;;;;;4.93;1.23;;;;;;;15.86;52.72;99826.44;5056943;28;20094;-91
2021/12/06 10:36:15;;;;;;;5.97;1.58;;;;;;;15.86;52.58;99818.53;5056096;28;20029;-91
2021/12/06 10:38:47;;;;;;;5.35;1.80;;;;;;;15.87;52.81;99825.53;5056045;28;20024;-90
2021/12/06 10:41:18;;;;;;;3.80;1.92;;;;;;;15.85;52.71;99817.69;5056150;28;20029;-91
2021/12/06 10:44:04;;;;;;;5.63;1.38;;;;;;;15.87;52.63;99815.00;5055783;28;20025;-91
2021/12/06 10:46:32;;;;;;;4.35;1.10;;;;;;;15.86;52.90;99816.78;5055750;28;20029;-90
2021/12/06 10:49:01;;;;;;;5.72;1.20;;;;;;;15.88;52.63;99811.47;5055740;28;20420;-91
2021/12/06 10:51:28;;;;;;;4.70;1.40;;;;;;;15.87;52.66;99810.59;5055860;28;20025;-92
2021/12/06 10:54:03;;;;;;;5.05;1.42;;;;;;;15.89;52.57;99802.66;5055885;28;20104;-91
2021/12/06 10:56:39;;;;;;;4.38;1.33;;;;;;;15.87;52.72;99809.75;5055839;28;20025;-90
2021/12/06 10:59:07;;;;;;;;;;;;;;;15.88;52.93;99803.56;5055814;28;20332;-91
2021/12/06 11:01:34;;;;;;;6.95;1.85;;;;;;;15.88;52.77;99807.03;5089204;28;19909;-91
2021/12/06 11:04:02;;;;;;;3.45;1.40;;;;;;;15.90;52.71;99807.88;5055914;28;20048;-90
2021/12/06 11:06:33;;;;;;;6.78;1.40;;;;;;;15.91;52.76;99806.06;5056795;28;20079;-91
2021/12/06 11:09:03;;;;;;;4.72;1.30;;;;;;;15.91;53.02;99800.81;5055278;28;20463;-91
2021/12/06 11:11:44;;;;;;;4.10;1.30;;;;;;;15.92;52.75;99802.53;5056734;28;20099;-91
2021/12/06 11:14:14;;;;;;;5.75;1.40;;;;;;;15.94;52.77;99816.56;5056194;28;20055;-91
2021/12/06 11:16:44;;;;;;;5.00;1.30;;;;;;;15.92;52.81;99807.78;5056348;28;20033;-92
2021/12/06 11:19:13;;;;;;;6.43;1.33;;;;;;;15.94;52.85;99808.66;5055572;28;20024;-91
2021/12/06 11:21:44;;;;;;;4.07;1.40;;;;;;;15.92;52.87;99807.78;5055265;28;20040;-91
2021/12/06 11:24:18;;;;;;;3.33;1.33;;;;;;;15.94;52.74;99801.59;5055844;28;20052;-92
2021/12/06 11:26:49;;;;;;;5.57;1.98;;;;;;;16.00;52.76;99808.44;5055994;28;20029;-91
2021/12/06 11:29:26;;;;;;;3.70;1.25;;;;;;;15.96;52.85;99793.66;5055072;28;20032;-90
2021/12/06 11:32:05;;;;;;;5.80;1.35;;;;;;;16.02;52.74;99793.44;5055026;28;20071;-91
2021/12/06 11:34:36;;;;;;;4.10;1.15;;;;;;;16.01;52.81;99797.00;5054842;28;20021;-91
2021/12/06 11:37:04;;;;;;;4.28;1.33;;;;;;;16.03;52.66;99795.16;5054894;28;20036;-91
2021/12/06 11:39:30;;;;;;;4.22;1.40;;;;;;;15.97;52.81;99798.00;5055010;28;20510;-91
2021/12/06 11:41:58;;;;;;;4.43;1.35;;;;;;;15.98;52.96;99797.09;5054912;28;20120;-89
2021/12/06 11:44:29;;;;;;;4.68;1.40;;;;;;;16.00;52.73;99795.28;5054709;28;20032;-91
2021/12/06 11:47:04;;;;;;;5.72;1.50;;;;;;;16.02;52.68;99788.19;5054744;28;20032;-90
2021/12/06 11:49:40;;;;;;;5.22;1.30;;;;;;;16.02;52.95;99792.59;5055582;28;20170;-91